Date,TemperatureHighF,TemperatureAvgF,TemperatureLowF,DewpointHighF,DewpointAvgF,DewpointLowF,HumidityHigh,HumidityAvg,HumidityLow,PressureMaxIn,PressureMinIn,WindSpeedMaxMPH,WindSpeedAvgMPH,GustSpeedMaxMPH,PrecipitationSumIn
2013-3-1,66,62,58,59,53,49,85,72,59,29.99,29.90,13,4,13,0.00
2013-3-2,67,59,51,51,44,36,81,59,40,30.04,29.96,29,7,29,0.00
2013-3-3,63,55,50,48,44,40,87,67,47,30.15,29.96,21,6,22,0.00
2013-3-4,70,55,42,47,38,30,88,57,24,30.22,30.12,20,5,20,0.00
2013-3-5,70,54,49,57,49,46,93,84,59,30.19,30.13,8,1,8,0.00
2013-3-7,74,65,56,56,50,43,92,61,35,30.19,30.10,11,3,12,0.00
2013-3-8,78,63,51,55,51,42,93,69,29,30.20,30.10,13,3,13,0.00
2013-3-9,76,65,53,58,54,51,92,70,50,30.19,30.10,21,4,21,0.00
2013-3-10,73,67,65,56,55,53,70,64,55,30.16,30.07,17,4,17,0.00
2013-3-13,69,68,67,58,58,57,70,69,68,30.11,30.10,15,9,15,0.00
2013-3-14,72,65,56,50,45,38,79,51,31,30.20,30.12,21,9,23,0.00
2013-3-15,66,56,52,51,48,45,81,74,55,30.25,30.17,12,6,12,0.00
2013-3-18,80,74,67,70,68,66,96,82,67,30.07,29.96,20,6,21,0.25
2013-3-19,81,73,68,70,68,65,96,85,65,30.01,29.82,24,3,28,0.00
2013-3-20,86,73,64,70,65,57,98,78,48,29.98,29.81,19,3,22,0.00
2013-3-21,70,64,62,62,59,46,94,84,44,29.95,29.83,19,6,19,0.00
2013-3-23,87,81,76,74,72,68,90,74,56,29.95,29.80,18,6,19,0.00
2013-3-24,88,79,72,74,72,67,96,80,55,29.89,29.68,31,9,36,0.00
2013-3-25,80,74,64,73,61,44,95,68,37,29.99,29.74,20,5,20,0.00
2013-3-26,64,59,56,45,41,36,60,52,39,30.12,29.99,27,9,27,0.00
2013-3-28,75,67,57,52,45,36,72,46,27,30.27,30.17,17,5,19,0.00
2013-3-29,75,65,55,54,51,45,81,61,40,30.29,30.20,18,5,19,0.00
2013-3-30,72,62,56,58,54,51,91,77,48,30.27,30.20,15,2,15,0.00